TimeHST,TemperatureF,Dew PointF,Humidity,Sea Level PressureIn,VisibilityMPH,Wind Direction,Wind SpeedMPH,Gust SpeedMPH,PrecipitationIn,Events,Conditions,WindDirDegrees,DateUTC
12:53 AM,70.0,57.9,65,30.07,10.0,ENE,4.6,-,N/A,,Mostly Cloudy,60,2013-03-02 10:53:00
1:53 AM,71.1,55.0,57,30.05,10.0,NNE,10.4,-,N/A,,Overcast,30,2013-03-02 11:53:00
2:53 AM,70.0,57.0,63,30.04,10.0,NE,4.6,-,N/A,,Overcast,50,2013-03-02 12:53:00
3:53 AM,70.0,55.9,61,30.03,10.0,NNE,5.8,-,N/A,,Mostly Cloudy,30,2013-03-02 13:53:00
4:53 AM,69.1,55.9,63,30.04,10.0,East,4.6,-,N/A,,Mostly Cloudy,90,2013-03-02 14:53:00
5:53 AM,70.0,57.9,65,30.04,10.0,NNE,5.8,-,N/A,,Overcast,20,2013-03-02 15:53:00
6:12 AM,71.6,57.2,60,30.04,10.0,North,5.8,-,N/A,,Overcast,10,2013-03-02 16:12:00
6:41 AM,71.6,60.8,69,30.06,10.0,NE,4.6,-,0.00,,Overcast,40,2013-03-02 16:41:00
6:53 AM,70.0,59.0,68,30.07,10.0,NNE,5.8,-,0.00,,Overcast,30,2013-03-02 16:53:00
7:53 AM,72.0,59.0,64,30.09,10.0,Calm,Calm,-,N/A,,Overcast,0,2013-03-02 17:53:00
8:53 AM,75.0,60.1,60,30.11,10.0,SSE,3.5,-,N/A,,Mostly Cloudy,160,2013-03-02 18:53:00
9:53 AM,78.1,57.9,50,30.11,10.0,SE,8.1,-,0.00,,Partly Cloudy,140,2013-03-02 19:53:00
10:53 AM,80.1,57.9,47,30.10,10.0,South,11.5,-,N/A,,Clear,180,2013-03-02 20:53:00
11:53 AM,79.0,57.0,47,30.09,10.0,WSW,9.2,-,N/A,,Partly Cloudy,240,2013-03-02 21:53:00
12:53 PM,80.1,59.0,48,30.06,10.0,SSW,11.5,-,N/A,,Clear,210,2013-03-02 22:53:00
1:53 PM,80.1,59.0,48,30.03,10.0,SW,10.4,-,N/A,,Partly Cloudy,220,2013-03-02 23:53:00
2:53 PM,80.1,57.0,45,30.01,10.0,Variable,6.9,-,N/A,,Mostly Cloudy,0,2013-03-03 00:53:00
3:53 PM,80.1,54.0,40,30.01,10.0,South,10.4,-,N/A,,Overcast,180,2013-03-03 01:53:00
4:53 PM,79.0,57.9,48,30.02,10.0,South,10.4,-,N/A,,Overcast,180,2013-03-03 02:53:00
5:53 PM,79.0,57.0,47,30.04,10.0,SSE,12.7,-,N/A,,Clear,150,2013-03-03 03:53:00
6:53 PM,75.9,59.0,56,30.07,10.0,SSE,4.6,-,N/A,,Mostly Cloudy,150,2013-03-03 04:53:00
7:53 PM,75.0,57.0,53,30.10,10.0,NNE,9.2,-,N/A,,Mostly Cloudy,20,2013-03-03 05:53:00
8:53 PM,73.9,55.9,53,30.12,10.0,North,8.1,-,N/A,,Partly Cloudy,360,2013-03-03 06:53:00
9:53 PM,72.0,55.9,57,30.12,10.0,NNE,12.7,-,N/A,,Clear,30,2013-03-03 07:53:00
10:53 PM,73.0,57.9,59,30.12,10.0,Calm,Calm,-,N/A,,Partly Cloudy,0,2013-03-03 08:53:00
11:53 PM,71.1,57.9,63,30.12,10.0,ENE,5.8,-,N/A,,Clear,60,2013-03-03 09:53:00